createdAt,value
2023-04-26T00:01:20.515Z,70.38
2023-04-26T00:03:49.830Z,69.13
2023-04-26T00:06:18.967Z,66.79
2023-04-26T00:08:48.003Z,66.41
2023-04-26T00:11:18.451Z,67.30
2023-04-26T00:13:47.495Z,66.77
2023-04-26T00:16:16.828Z,67.42
2023-04-26T00:18:46.305Z,68.75
2023-04-26T00:21:15.333Z,68.51
2023-04-26T00:23:44.333Z,69.25
2023-04-26T00:26:13.342Z,69.40
2023-04-26T00:28:43.826Z,70.13
2023-04-26T00:31:16.128Z,70.75
2023-04-26T00:33:45.592Z,70.93
2023-04-26T00:36:15.464Z,71.48
2023-04-26T00:38:44.490Z,72.65
2023-04-26T00:41:13.616Z,74.36
2023-04-26T00:43:44.108Z,77.06
2023-04-26T00:46:13.560Z,81.59
2023-04-26T00:48:43.825Z,85.47
2023-04-26T00:51:13.749Z,90.14
2023-04-26T00:53:43.422Z,95.25
2023-04-26T00:56:13.335Z,100.00
2023-04-26T00:58:44.322Z,100.00
2023-04-26T01:01:13.553Z,100.00
2023-04-26T01:03:44.554Z,100.00
2023-04-26T01:06:14.254Z,100.00
2023-04-26T01:08:43.641Z,100.00
2023-04-26T01:11:12.983Z,100.00
2023-04-26T01:13:43.780Z,100.00
2023-04-26T01:16:16.429Z,100.00
2023-04-26T01:18:45.630Z,100.00
2023-04-26T01:21:20.954Z,100.00
2023-04-26T01:23:52.388Z,100.00
2023-04-26T01:26:21.820Z,100.00
2023-04-26T01:28:51.100Z,100.00
2023-04-26T01:31:21.242Z,100.00
2023-04-26T01:33:50.391Z,100.00
2023-04-26T01:36:21.730Z,100.00
2023-04-26T01:38:52.397Z,100.00
2023-04-26T01:41:24.483Z,100.00
2023-04-26T01:43:55.568Z,100.00
2023-04-26T01:46:24.712Z,100.00
2023-04-26T01:48:54.017Z,100.00
2023-04-26T01:51:25.154Z,100.00
2023-04-26T01:53:55.629Z,100.00
2023-04-26T01:56:25.763Z,100.00
2023-04-26T01:58:56.468Z,100.00
2023-04-26T02:01:26.380Z,100.00
2023-04-26T02:03:55.490Z,100.00
2023-04-26T02:06:24.575Z,100.00
2023-04-26T02:08:55.624Z,100.00
2023-04-26T02:11:24.845Z,100.00
2023-04-26T02:13:54.329Z,100.00
2023-04-26T02:16:23.579Z,100.00
2023-04-26T02:18:53.803Z,100.00
2023-04-26T02:21:23.948Z,100.00
2023-04-26T02:23:52.939Z,100.00
2023-04-26T02:26:23.366Z,100.00
2023-04-26T02:28:53.182Z,100.00
2023-04-26T02:31:23.319Z,100.00
2023-04-26T02:33:52.571Z,100.00
2023-04-26T02:36:21.651Z,100.00
2023-04-26T02:38:51.114Z,100.00
2023-04-26T02:41:20.507Z,100.00
2023-04-26T02:43:50.915Z,100.00
2023-04-26T02:46:20.069Z,100.00
2023-04-26T02:48:49.194Z,100.00
2023-04-26T02:51:18.472Z,100.00
2023-04-26T02:53:47.511Z,100.00
2023-04-26T02:56:16.781Z,100.00
2023-04-26T02:58:46.542Z,100.00
2023-04-26T03:01:17.919Z,100.00
2023-04-26T03:03:47.488Z,100.00
2023-04-26T03:06:16.584Z,100.00
2023-04-26T03:08:45.564Z,100.00
2023-04-26T03:11:14.718Z,100.00
2023-04-26T03:13:44.208Z,100.00
2023-04-26T03:16:13.334Z,100.00
2023-04-26T03:18:43.778Z,100.00
2023-04-26T03:21:13.059Z,100.00
2023-04-26T03:23:42.612Z,100.00
2023-04-26T03:26:12.087Z,100.00
2023-04-26T03:28:41.103Z,100.00
2023-04-26T03:31:10.152Z,100.00
2023-04-26T03:33:39.228Z,100.00
2023-04-26T03:36:10.531Z,100.00
2023-04-26T03:38:39.956Z,100.00
2023-04-26T03:41:09.236Z,100.00
2023-04-26T03:43:39.668Z,100.00
2023-04-26T03:46:08.734Z,100.00
2023-04-26T03:48:37.842Z,100.00
2023-04-26T03:51:07.087Z,100.00
2023-04-26T03:53:37.532Z,100.00
2023-04-26T03:56:08.788Z,100.00
2023-04-26T03:58:39.319Z,100.00
2023-04-26T04:01:08.690Z,100.00
2023-04-26T04:03:40.147Z,100.00
2023-04-26T04:06:10.377Z,100.00
2023-04-26T04:08:41.002Z,100.00
2023-04-26T04:11:11.079Z,100.00
2023-04-26T04:13:41.592Z,100.00
2023-04-26T04:16:11.360Z,100.00
2023-04-26T04:18:40.531Z,100.00
2023-04-26T04:21:09.696Z,100.00
2023-04-26T04:23:40.747Z,100.00
2023-04-26T04:26:12.864Z,100.00
2023-04-26T04:28:42.786Z,100.00
2023-04-26T04:31:13.238Z,100.00
2023-04-26T04:33:42.902Z,100.00
2023-04-26T04:36:11.983Z,100.00
2023-04-26T04:38:42.485Z,100.00
2023-04-26T04:41:12.568Z,100.00
2023-04-26T04:43:41.792Z,100.00
2023-04-26T04:46:12.708Z,100.00
2023-04-26T04:48:44.489Z,100.00
2023-04-26T04:51:13.724Z,100.00
2023-04-26T04:53:44.470Z,100.00
2023-04-26T04:56:14.582Z,100.00
2023-04-26T04:58:43.812Z,100.00
2023-04-26T05:01:15.193Z,100.00
2023-04-26T05:03:52.198Z,100.00
2023-04-26T05:06:22.532Z,100.00
2023-04-26T05:08:53.087Z,100.00
2023-04-26T05:11:22.225Z,100.00
2023-04-26T05:13:52.891Z,100.00
2023-04-26T05:16:23.024Z,100.00
2023-04-26T05:18:52.706Z,100.00
2023-04-26T05:21:24.171Z,100.00
2023-04-26T05:23:55.229Z,100.00
2023-04-26T05:26:24.506Z,100.00
2023-04-26T05:28:53.472Z,100.00
2023-04-26T05:31:41.216Z,100.00
2023-04-26T05:34:22.532Z,100.00
2023-04-26T05:36:56.751Z,100.00
2023-04-26T05:39:27.627Z,100.00
2023-04-26T05:41:56.733Z,100.00
2023-04-26T05:44:25.843Z,100.00
2023-04-26T05:46:54.976Z,100.00
2023-04-26T05:49:24.028Z,100.00
2023-04-26T05:51:54.272Z,100.00
2023-04-26T05:54:23.343Z,100.00
2023-04-26T05:56:53.799Z,100.00
2023-04-26T05:59:22.871Z,100.00
2023-04-26T06:01:52.065Z,100.00
2023-04-26T06:04:21.317Z,100.00
2023-04-26T06:07:03.000Z,100.00
2023-04-26T06:09:33.362Z,100.00
2023-04-26T06:12:05.435Z,100.00
2023-04-26T06:14:37.433Z,100.00
2023-04-26T06:17:11.063Z,100.00
2023-04-26T06:19:40.157Z,100.00
2023-04-26T06:22:09.198Z,100.00
2023-04-26T06:24:38.247Z,100.00
2023-04-26T06:27:09.057Z,100.00
2023-04-26T06:29:39.524Z,100.00
2023-04-26T06:32:09.125Z,100.00
2023-04-26T06:34:38.410Z,100.00
2023-04-26T06:37:08.408Z,100.00
2023-04-26T06:39:41.114Z,100.00
2023-04-26T06:42:11.890Z,100.00
2023-04-26T06:45:17.126Z,100.00
2023-04-26T06:47:47.719Z,100.00
2023-04-26T06:50:17.039Z,100.00
2023-04-26T06:52:46.133Z,100.00
2023-04-26T06:55:15.146Z,96.76
2023-04-26T06:57:45.937Z,93.27
2023-04-26T07:00:16.497Z,92.28
2023-04-26T07:02:45.662Z,95.54
2023-04-26T07:05:15.488Z,88.54
2023-04-26T07:07:44.822Z,85.40
2023-04-26T07:10:14.782Z,86.48
2023-04-26T07:12:45.358Z,86.03
2023-04-26T07:15:14.507Z,83.24
2023-04-26T07:17:43.554Z,77.90
2023-04-26T07:20:15.665Z,78.74
2023-04-26T07:22:44.833Z,73.37
2023-04-26T07:25:14.081Z,73.74
2023-04-26T07:27:43.549Z,69.72
2023-04-26T07:30:14.910Z,67.70
2023-04-26T07:32:44.061Z,67.64
2023-04-26T07:35:16.347Z,68.29
2023-04-26T07:37:45.880Z,66.24
2023-04-26T07:40:15.547Z,72.77
2023-04-26T07:42:44.579Z,70.32
2023-04-26T07:45:15.873Z,69.52
2023-04-26T07:47:45.693Z,69.44
2023-04-26T07:50:15.098Z,68.34
2023-04-26T07:52:44.623Z,68.77
2023-04-26T07:55:14.667Z,72.10
2023-04-26T07:57:44.957Z,72.52
2023-04-26T08:00:17.741Z,71.65
2023-04-26T08:02:47.185Z,67.82
2023-04-26T08:05:17.209Z,68.39
2023-04-26T08:07:46.366Z,68.11
2023-04-26T08:10:15.445Z,67.58
2023-04-26T08:12:44.472Z,66.99
2023-04-26T08:15:15.449Z,62.99
2023-04-26T08:17:44.549Z,62.46
2023-04-26T08:20:14.303Z,63.55
2023-04-26T08:22:43.331Z,63.85
2023-04-26T08:25:12.386Z,64.80
2023-04-26T08:27:41.448Z,66.06
2023-04-26T08:30:11.201Z,63.04
2023-04-26T08:32:41.657Z,64.21
2023-04-26T08:35:11.623Z,59.21
2023-04-26T08:37:40.934Z,59.77
2023-04-26T08:40:11.209Z,57.82
2023-04-26T08:42:44.152Z,60.68
2023-04-26T08:45:13.274Z,56.79
2023-04-26T08:47:48.748Z,55.82
2023-04-26T08:50:21.250Z,57.50
2023-04-26T08:52:52.984Z,59.59
2023-04-26T08:55:22.162Z,55.93
2023-04-26T08:57:51.898Z,59.47
2023-04-26T09:00:22.259Z,59.10
2023-04-26T09:02:54.482Z,58.90
2023-04-26T09:05:26.701Z,59.19
2023-04-26T09:08:01.212Z,59.90
2023-04-26T09:10:32.287Z,59.23
2023-04-26T09:13:01.416Z,61.45
2023-04-26T09:15:30.499Z,57.73
2023-04-26T09:18:18.874Z,53.01
2023-04-26T09:21:02.412Z,52.34
2023-04-26T09:23:31.810Z,54.17
2023-04-26T09:26:22.450Z,51.50
2023-04-26T09:29:11.805Z,51.61
2023-04-26T09:31:43.384Z,53.41
2023-04-26T09:34:15.390Z,52.15
2023-04-26T09:36:52.372Z,53.52
2023-04-26T09:39:37.353Z,52.77
2023-04-26T09:42:07.372Z,51.12
2023-04-26T09:44:36.927Z,50.58
2023-04-26T09:47:09.671Z,48.92
2023-04-26T09:49:48.898Z,49.29
2023-04-26T09:52:19.473Z,50.73
2023-04-26T09:54:51.759Z,51.32
2023-04-26T09:57:23.728Z,52.22
2023-04-26T09:59:56.363Z,52.37
2023-04-26T10:02:28.090Z,54.52
2023-04-26T10:05:00.222Z,57.29
2023-04-26T10:07:31.831Z,53.14
2023-04-26T10:10:01.276Z,52.13
2023-04-26T10:12:30.771Z,52.47
2023-04-26T10:15:00.036Z,53.76
2023-04-26T10:17:29.155Z,53.26
2023-04-26T10:20:01.706Z,48.71
2023-04-26T10:22:35.144Z,48.71
2023-04-26T10:25:04.885Z,48.78
2023-04-26T10:27:53.191Z,52.34
2023-04-26T10:30:26.537Z,50.46
2023-04-26T10:33:16.729Z,50.77
2023-04-26T10:36:09.849Z,50.08
2023-04-26T10:38:41.675Z,52.93
2023-04-26T10:41:33.250Z,52.33
2023-04-26T10:44:42.342Z,48.28
2023-04-26T10:47:31.656Z,49.18
2023-04-26T10:50:10.193Z,48.48
2023-04-26T10:53:08.750Z,48.23
2023-04-26T10:55:41.807Z,44.24
2023-04-26T10:58:29.260Z,42.21
2023-04-26T11:01:08.412Z,40.13
2023-04-26T11:03:38.324Z,37.84
2023-04-26T11:06:09.706Z,41.21
2023-04-26T11:08:40.425Z,43.12
2023-04-26T11:11:13.489Z,45.55
2023-04-26T11:13:43.656Z,47.78
2023-04-26T11:16:14.602Z,47.78
2023-04-26T11:18:45.882Z,49.02
2023-04-26T11:21:18.295Z,48.84
2023-04-26T11:23:56.790Z,49.61
2023-04-26T11:26:34.646Z,49.06
2023-04-26T11:29:04.605Z,45.72
2023-04-26T11:31:33.642Z,41.37
2023-04-26T11:34:05.981Z,39.03
2023-04-26T11:36:37.092Z,35.50
2023-04-26T11:39:08.780Z,35.54
2023-04-26T11:41:37.825Z,31.39
2023-04-26T11:44:07.245Z,32.71
2023-04-26T11:46:36.805Z,31.80
2023-04-26T11:49:09.299Z,35.68
2023-04-26T11:51:38.698Z,37.94
2023-04-26T11:54:09.269Z,38.90
2023-04-26T11:56:39.719Z,37.97
2023-04-26T11:59:08.844Z,38.12
2023-04-26T12:01:38.187Z,35.53
2023-04-26T12:04:11.467Z,36.47
2023-04-26T12:06:45.577Z,37.16
2023-04-26T12:09:15.998Z,34.39
2023-04-26T12:11:54.540Z,35.12
2023-04-26T12:14:24.026Z,35.23
2023-04-26T12:16:54.970Z,37.18
2023-04-26T12:19:25.465Z,34.35
2023-04-26T12:21:54.788Z,35.69
2023-04-26T12:24:33.448Z,39.32
2023-04-26T12:27:04.376Z,39.15
2023-04-26T12:29:33.728Z,40.03
2023-04-26T12:32:04.206Z,36.31
2023-04-26T12:34:33.507Z,38.25
2023-04-26T12:37:03.391Z,38.66
2023-04-26T12:39:33.838Z,39.68
2023-04-26T12:42:03.112Z,40.23
2023-04-26T12:44:32.172Z,39.42
2023-04-26T12:47:01.293Z,31.68
2023-04-26T12:49:30.533Z,33.73
2023-04-26T12:51:59.546Z,36.09
2023-04-26T12:54:28.577Z,36.37
2023-04-26T12:56:59.037Z,40.12
2023-04-26T13:03:50.740Z,37.41
2023-04-26T13:06:19.935Z,31.62
2023-04-26T13:08:49.314Z,32.52
2023-04-26T13:11:18.321Z,31.70
2023-04-26T13:13:49.693Z,28.25
2023-04-26T13:16:18.916Z,28.24
2023-04-26T13:18:47.947Z,31.20
2023-04-26T13:21:16.978Z,32.52
2023-04-26T13:23:46.829Z,34.66
2023-04-26T13:26:20.521Z,33.28
2023-04-26T13:28:51.522Z,34.24
2023-04-26T13:31:21.082Z,34.67
2023-04-26T13:33:51.536Z,34.43
2023-04-26T13:36:20.743Z,33.38
2023-04-26T13:38:49.859Z,35.64
2023-04-26T13:41:18.900Z,36.66
2023-04-26T13:43:48.083Z,38.04
2023-04-26T13:46:18.529Z,36.06
2023-04-26T13:48:47.688Z,37.04
2023-04-26T13:51:16.919Z,36.50
2023-04-26T13:53:46.336Z,34.25
2023-04-26T13:56:15.450Z,30.99
2023-04-26T13:58:45.004Z,32.67
2023-04-26T14:01:14.485Z,37.07
2023-04-26T14:03:45.116Z,36.93
2023-04-26T14:06:14.361Z,37.18
2023-04-26T14:08:43.402Z,36.43
2023-04-26T14:11:14.192Z,36.39
2023-04-26T14:13:43.406Z,36.20
2023-04-26T14:16:12.594Z,34.90
2023-04-26T14:18:45.326Z,35.01
2023-04-26T14:21:16.656Z,35.13
2023-04-26T14:23:45.954Z,36.12
2023-04-26T14:26:15.350Z,34.88
2023-04-26T14:28:44.426Z,35.59
2023-04-26T14:31:13.514Z,36.02
2023-04-26T14:33:42.578Z,35.88
2023-04-26T14:36:11.617Z,37.96
2023-04-26T14:38:44.194Z,35.94
2023-04-26T14:41:16.638Z,36.01
2023-04-26T14:43:47.277Z,35.87
2023-04-26T14:46:16.588Z,35.12
2023-04-26T14:48:45.930Z,33.28
2023-04-26T14:51:15.063Z,34.61
2023-04-26T14:53:45.441Z,35.72
2023-04-26T14:56:14.462Z,37.94
2023-04-26T14:58:43.539Z,36.25
2023-04-26T15:01:12.594Z,37.83
2023-04-26T15:03:41.966Z,38.60
2023-04-26T15:06:11.064Z,41.22
2023-04-26T15:08:40.116Z,40.65
2023-04-26T15:11:10.629Z,41.29
2023-04-26T15:13:39.790Z,40.97
2023-04-26T15:16:09.714Z,39.55
2023-04-26T15:18:38.816Z,37.94
2023-04-26T15:21:07.830Z,37.79
2023-04-26T15:23:36.913Z,40.73
2023-04-26T15:26:06.048Z,40.40
2023-04-26T15:28:36.790Z,39.67
2023-04-26T15:31:08.782Z,38.16
2023-04-26T15:33:38.014Z,38.44
2023-04-26T15:36:08.128Z,40.06
2023-04-26T15:38:37.272Z,40.55
2023-04-26T15:41:06.633Z,40.04
2023-04-26T15:43:37.065Z,39.87
2023-04-26T15:46:06.370Z,40.60
2023-04-26T15:48:35.505Z,41.97
2023-04-26T15:51:06.742Z,40.15
2023-04-26T15:53:39.220Z,39.45
2023-04-26T15:56:16.322Z,41.45
2023-04-26T15:58:47.685Z,40.56
2023-04-26T16:01:17.225Z,41.28
2023-04-26T16:03:47.706Z,40.16
2023-04-26T16:06:17.363Z,39.71
2023-04-26T16:08:46.389Z,40.53
2023-04-26T16:11:15.640Z,41.44
2023-04-26T16:13:47.228Z,42.34
2023-04-26T16:16:16.566Z,46.34
2023-04-26T16:18:46.029Z,45.75
2023-04-26T16:21:15.197Z,44.49
2023-04-26T16:23:44.298Z,42.65
2023-04-26T16:26:13.578Z,41.71
2023-04-26T16:28:42.761Z,42.60
2023-04-26T16:31:13.322Z,43.54
2023-04-26T16:33:42.748Z,42.65
2023-04-26T16:36:12.150Z,43.65
2023-04-26T16:38:41.762Z,44.53
2023-04-26T16:41:10.981Z,44.09
2023-04-26T16:43:40.012Z,43.88
2023-04-26T16:46:09.988Z,43.54
2023-04-26T16:48:41.478Z,42.52
2023-04-26T16:51:11.198Z,38.33
2023-04-26T16:53:40.419Z,37.58
2023-04-26T16:56:09.699Z,39.39
2023-04-26T16:58:41.646Z,41.25
2023-04-26T17:01:10.935Z,42.14
2023-04-26T17:03:41.621Z,43.36
2023-04-26T17:06:11.862Z,45.15
2023-04-26T17:08:40.905Z,44.50
2023-04-26T17:11:10.167Z,46.24
2023-04-26T17:13:39.190Z,46.24
2023-04-26T17:16:09.624Z,45.37
2023-04-26T17:18:40.219Z,45.19
2023-04-26T17:21:09.336Z,46.95
2023-04-26T17:23:38.404Z,47.96
2023-04-26T17:26:07.461Z,47.78
2023-04-26T17:28:38.955Z,48.07
2023-04-26T17:31:08.081Z,47.71
2023-04-26T17:33:37.832Z,48.84
2023-04-26T17:36:08.973Z,48.64
2023-04-26T17:38:38.045Z,50.10
2023-04-26T17:41:07.086Z,50.75
2023-04-26T17:43:36.198Z,49.58
2023-04-26T17:46:05.347Z,50.01
2023-04-26T17:48:34.458Z,50.29
2023-04-26T17:51:03.587Z,50.71
2023-04-26T17:53:34.388Z,52.20
2023-04-26T17:56:07.244Z,51.64
2023-04-26T17:58:36.806Z,51.28
2023-04-26T18:01:06.119Z,52.17
2023-04-26T18:03:35.907Z,52.92
2023-04-26T18:06:05.825Z,54.71
2023-04-26T18:08:36.792Z,54.43
2023-04-26T18:11:06.341Z,55.60
2023-04-26T18:13:35.455Z,57.98
2023-04-26T18:16:04.596Z,60.05
2023-04-26T18:18:33.854Z,61.16
2023-04-26T18:21:03.016Z,62.42
2023-04-26T18:23:32.484Z,60.78
2023-04-26T18:26:02.946Z,62.03
2023-04-26T18:28:33.570Z,62.56
2023-04-26T18:31:02.751Z,63.40
2023-04-26T18:33:32.121Z,62.86
2023-04-26T18:36:02.480Z,63.59
2023-04-26T18:38:31.844Z,65.80
2023-04-26T18:41:02.348Z,67.34
2023-04-26T18:43:31.543Z,68.51
2023-04-26T18:46:00.675Z,68.00
2023-04-26T18:48:29.765Z,68.01
2023-04-26T18:50:58.841Z,70.41
2023-04-26T18:53:28.020Z,69.60
2023-04-26T18:55:57.719Z,71.63
2023-04-26T18:58:28.204Z,72.71
2023-04-26T19:00:57.461Z,74.40
2023-04-26T19:03:27.152Z,74.69
2023-04-26T19:05:57.012Z,75.23
2023-04-26T19:08:27.064Z,76.57
2023-04-26T19:10:56.682Z,75.44
2023-04-26T19:13:28.284Z,75.31
2023-04-26T19:15:57.594Z,76.70
2023-04-26T19:18:27.267Z,75.89
2023-04-26T19:20:56.635Z,79.55
2023-04-26T19:23:26.219Z,80.05
2023-04-26T19:25:55.681Z,80.54
2023-04-26T19:28:25.184Z,80.68
2023-04-26T19:30:56.526Z,81.69
2023-04-26T19:33:26.313Z,81.07
2023-04-26T19:35:57.690Z,82.62
2023-04-26T19:38:27.703Z,80.74
2023-04-26T19:40:56.951Z,75.76
2023-04-26T19:43:28.008Z,74.59
2023-04-26T19:45:58.923Z,75.29
2023-04-26T19:48:28.925Z,75.17
2023-04-26T19:50:58.935Z,77.25
2023-04-26T19:53:28.466Z,76.31
2023-04-26T19:56:02.064Z,78.74
2023-04-26T19:58:32.426Z,79.04
2023-04-26T20:01:03.579Z,79.35
2023-04-26T20:03:34.274Z,80.76
2023-04-26T20:06:03.654Z,81.83
2023-04-26T20:08:32.969Z,83.52
2023-04-26T20:11:04.803Z,81.41
2023-04-26T20:13:34.650Z,83.14
2023-04-26T20:16:05.676Z,84.74
2023-04-26T20:18:35.475Z,91.15
2023-04-26T20:21:05.024Z,88.83
2023-04-26T20:23:34.626Z,88.96
2023-04-26T20:26:04.627Z,90.27
2023-04-26T20:28:33.845Z,90.65
2023-04-26T20:31:04.802Z,92.86
2023-04-26T20:33:34.574Z,92.25
2023-04-26T20:36:05.016Z,95.64
2023-04-26T20:38:34.940Z,94.20
2023-04-26T20:41:04.777Z,96.25
2023-04-26T20:43:34.613Z,94.91
2023-04-26T20:46:05.358Z,98.08
2023-04-26T20:48:34.849Z,98.57
2023-04-26T20:51:05.138Z,100.00
2023-04-26T20:53:34.497Z,100.00
2023-04-26T20:56:03.866Z,100.00
2023-04-26T20:58:33.180Z,100.00
2023-04-26T21:01:03.674Z,100.00
2023-04-26T21:03:35.965Z,100.00
2023-04-26T21:06:05.713Z,100.00
2023-04-26T21:08:36.739Z,100.00
2023-04-26T21:11:06.388Z,100.00
2023-04-26T21:13:35.612Z,100.00
2023-04-26T21:16:05.369Z,100.00
2023-04-26T21:18:36.031Z,100.00
2023-04-26T21:21:05.477Z,100.00
2023-04-26T21:23:35.192Z,100.00
2023-04-26T21:26:04.344Z,100.00
2023-04-26T21:28:33.684Z,100.00
2023-04-26T21:31:05.022Z,100.00
2023-04-26T21:33:36.447Z,100.00
2023-04-26T21:36:06.763Z,100.00
2023-04-26T21:38:35.989Z,100.00
2023-04-26T21:41:05.310Z,100.00
2023-04-26T21:43:34.617Z,100.00
2023-04-26T21:46:03.821Z,100.00
2023-04-26T21:48:33.168Z,100.00
2023-04-26T21:51:03.756Z,100.00
2023-04-26T21:53:33.241Z,100.00
2023-04-26T21:56:04.832Z,100.00
2023-04-26T21:58:34.482Z,100.00
2023-04-26T22:01:11.554Z,100.00
2023-04-26T22:03:41.561Z,100.00
2023-04-26T22:06:13.179Z,100.00
2023-04-26T22:08:42.666Z,100.00
2023-04-26T22:11:11.897Z,100.00
2023-04-26T22:13:41.157Z,100.00
2023-04-26T22:16:10.404Z,100.00
2023-04-26T22:18:39.746Z,100.00
2023-04-26T22:21:09.125Z,100.00
2023-04-26T22:23:39.837Z,100.00
2023-04-26T22:26:09.244Z,100.00
2023-04-26T22:28:38.697Z,100.00
2023-04-26T22:31:07.972Z,100.00
2023-04-26T22:33:37.334Z,100.00
2023-04-26T22:36:07.532Z,100.00
2023-04-26T22:38:37.037Z,100.00
2023-04-26T22:41:09.775Z,100.00
2023-04-26T22:43:41.626Z,100.00
2023-04-26T22:46:11.799Z,100.00
2023-04-26T22:48:41.133Z,100.00
2023-04-26T22:51:10.452Z,100.00
2023-04-26T22:53:39.770Z,100.00
2023-04-26T22:56:10.914Z,100.00
2023-04-26T22:58:40.112Z,100.00
2023-04-26T23:01:11.554Z,100.00
2023-04-26T23:03:41.423Z,100.00
2023-04-26T23:06:10.945Z,100.00
2023-04-26T23:08:40.245Z,100.00
2023-04-26T23:11:11.375Z,100.00
2023-04-26T23:13:41.374Z,100.00
2023-04-26T23:16:10.616Z,100.00
2023-04-26T23:18:42.071Z,100.00
2023-04-26T23:21:11.392Z,100.00
2023-04-26T23:23:42.818Z,100.00
2023-04-26T23:26:14.434Z,100.00
2023-04-26T23:28:43.960Z,100.00
2023-04-26T23:31:13.146Z,100.00
2023-04-26T23:33:42.459Z,100.00
2023-04-26T23:36:11.902Z,100.00
2023-04-26T23:38:41.051Z,100.00
2023-04-26T23:41:10.220Z,100.00
2023-04-26T23:43:40.731Z,100.00
2023-04-26T23:46:09.961Z,100.00
2023-04-26T23:48:39.085Z,100.00
2023-04-26T23:51:08.364Z,100.00
2023-04-26T23:53:39.661Z,100.00
2023-04-26T23:56:10.133Z,100.00
2023-04-26T23:58:40.870Z,100.00
